Time;durP1;ratioP1;P1;durP2;ratioP2;P2;SDS_P1;SDS_P2;PMS_P1;PMS_P2;Temp;Humidity;BMP_temperature;BMP_pressure;BME280_temperature;BME280_humidity;BME280_pressure;Samples;Min_cycle;Max_cycle;Signal;HPM_P1;HPM_P2
2023/08/31 00:00:44;;;;;;;4.67;3.93;;;13.40;99.90;;;;;;6131914;23;20793;-78
2023/08/31 00:03:10;;;;;;;3.60;2.93;;;13.40;99.90;;;;;;6131519;23;20163;-79
2023/08/31 00:05:41;;;;;;;4.73;2.80;;;13.40;99.90;;;;;;6131158;23;20364;-78
2023/08/31 00:08:07;;;;;;;4.17;2.90;;;13.40;99.90;;;;;;6131479;23;20360;-77
2023/08/31 00:10:34;;;;;;;7.60;3.53;;;13.40;99.90;;;;;;6130932;23;20847;-77
2023/08/31 00:13:01;;;;;;;4.67;3.50;;;13.30;99.90;;;;;;6133227;23;20360;-78
2023/08/31 00:15:28;;;;;;;4.63;2.77;;;13.30;99.90;;;;;;6084334;23;20415;-76
2023/08/31 00:17:54;;;;;;;5.73;3.13;;;13.20;99.90;;;;;;6107250;23;20375;-78
2023/08/31 00:20:19;;;;;;;7.13;2.90;;;13.10;99.90;;;;;;6131715;23;20400;-76
2023/08/31 00:22:45;;;;;;;4.63;3.10;;;13.10;99.90;;;;;;6131352;23;20171;-77
2023/08/31 00:25:10;;;;;;;3.67;3.37;;;13.00;99.90;;;;;;6105413;23;20143;-74
2023/08/31 00:27:40;;;;;;;3.70;2.53;;;13.00;99.90;;;;;;6131388;23;20502;-76
2023/08/31 00:30:10;;;;;;;4.80;3.07;;;12.90;99.90;;;;;;6132122;23;20477;-76
2023/08/31 00:32:36;;;;;;;3.70;3.30;;;12.80;99.90;;;;;;6105920;23;20405;-77
2023/08/31 00:35:03;;;;;;;3.70;2.50;;;12.80;99.90;;;;;;6130699;23;20634;-77
2023/08/31 00:37:29;;;;;;;3.17;2.20;;;12.70;99.90;;;;;;6132106;23;20155;-78
2023/08/31 00:39:55;;;;;;;3.37;2.40;;;12.70;99.90;;;;;;6106471;23;20485;-77
2023/08/31 00:42:21;;;;;;;3.07;2.23;;;12.60;99.90;;;;;;6131979;23;20431;-78
2023/08/31 00:44:47;;;;;;;3.27;2.40;;;12.50;99.90;;;;;;6132768;23;20136;-77
2023/08/31 00:47:14;;;;;;;3.97;2.87;;;12.50;99.90;;;;;;6138770;23;20359;-76
2023/08/31 00:49:40;;;;;;;3.27;2.97;;;12.50;99.90;;;;;;6144161;23;20153;-77
2023/08/31 00:52:07;;;;;;;4.93;3.10;;;12.40;99.90;;;;;;6132467;23;20466;-77
2023/08/31 00:54:34;;;;;;;2.67;2.47;;;12.40;99.90;;;;;;6132880;23;20375;-76
2023/08/31 00:57:00;;;;;;;2.83;2.40;;;12.40;99.90;;;;;;6106668;23;20887;-76
2023/08/31 00:59:27;;;;;;;3.47;2.57;;;12.40;99.90;;;;;;6111593;23;20367;-76
2023/08/31 01:02:06;;;;;;;3.30;2.40;;;12.50;99.90;;;;;;6132500;23;20375;-78
2023/08/31 01:04:40;;;;;;;3.00;2.60;;;12.50;99.90;;;;;;6082678;23;20454;-76
2023/08/31 01:07:26;;;;;;;2.80;2.23;;;12.50;99.90;;;;;;6132277;23;20370;-77
2023/08/31 01:10:04;;;;;;;3.87;2.00;;;12.50;99.90;;;;;;6132047;23;20388;-78
2023/08/31 01:12:45;;;;;;;5.37;2.43;;;12.50;99.90;;;;;;6106705;23;20392;-76
2023/08/31 01:15:14;;;;;;;3.30;2.70;;;12.40;99.90;;;;;;6090222;23;20394;-76
2023/08/31 01:17:45;;;;;;;5.30;4.00;;;12.40;99.90;;;;;;6139551;23;20353;-76
2023/08/31 01:20:17;;;;;;;4.90;4.40;;;12.40;99.90;;;;;;6106604;23;20412;-78
2023/08/31 01:22:51;;;;;;;9.33;4.90;;;12.40;99.90;;;;;;6106264;23;20411;-77
2023/08/31 01:25:18;;;;;;;6.27;4.10;;;12.30;99.90;;;;;;6130765;23;20617;-76
2023/08/31 01:27:44;;;;;;;5.03;2.97;;;12.30;99.90;;;;;;6130177;23;20398;-77
2023/08/31 01:30:09;;;;;;;3.97;3.57;;;12.20;99.90;;;;;;6130163;23;20387;-76
2023/08/31 01:32:36;;;;;;;5.27;3.20;;;12.20;99.90;;;;;;6105254;23;20474;-76
2023/08/31 01:35:05;;;;;;;4.43;3.97;;;12.20;99.90;;;;;;6082360;23;20155;-76
2023/08/31 01:37:36;;;;;;;4.10;3.10;;;12.10;99.90;;;;;;6082671;23;20379;-76
2023/08/31 01:40:25;;;;;;;3.40;2.93;;;12.00;99.90;;;;;;6105697;23;20397;-76
2023/08/31 01:42:51;;;;;;;4.60;2.90;;;12.00;99.90;;;;;;6131794;23;20400;-75
2023/08/31 01:45:20;;;;;;;8.33;4.60;;;11.90;99.90;;;;;;6132860;23;20788;-74
2023/08/31 01:47:46;;;;;;;4.50;3.13;;;11.80;99.90;;;;;;6082446;23;20174;-77
2023/08/31 01:50:12;;;;;;;7.70;3.57;;;11.80;99.90;;;;;;6106388;23;20494;-79
2023/08/31 01:52:38;;;;;;;2.53;2.10;;;11.70;99.90;;;;;;6133231;23;20378;-76
2023/08/31 01:55:05;;;;;;;3.93;3.10;;;11.70;99.90;;;;;;6107290;23;20148;-78
2023/08/31 01:57:32;;;;;;;3.53;3.23;;;11.70;99.90;;;;;;6084155;23;20378;-77
2023/08/31 02:00:11;;;;;;;7.10;3.60;;;11.60;99.90;;;;;;6109106;23;20638;-77
2023/08/31 02:02:42;;;;;;;4.07;3.20;;;11.60;99.90;;;;;;6107505;23;20395;-76
2023/08/31 02:05:08;;;;;;;9.23;3.33;;;11.60;99.90;;;;;;6083686;23;20404;-77
2023/08/31 02:07:34;;;;;;;3.67;2.80;;;11.50;99.90;;;;;;6107331;23;20160;-75
2023/08/31 02:10:01;;;;;;;6.23;3.37;;;11.50;99.90;;;;;;6107557;23;20406;-76
2023/08/31 02:12:27;;;;;;;2.93;2.30;;;11.50;99.90;;;;;;6132520;23;20684;-75
2023/08/31 02:14:52;;;;;;;2.67;2.30;;;11.50;99.90;;;;;;6107057;23;20152;-75
2023/08/31 02:17:18;;;;;;;2.23;1.93;;;11.40;99.90;;;;;;6133405;23;20133;-76
2023/08/31 02:19:43;;;;;;;6.70;2.17;;;11.40;99.90;;;;;;6107032;23;20204;-76
2023/08/31 02:22:09;;;;;;;3.50;2.43;;;11.40;99.90;;;;;;6083292;23;20215;-77
2023/08/31 02:24:35;;;;;;;3.23;2.33;;;11.40;99.90;;;;;;6107379;23;20171;-76
2023/08/31 02:27:00;;;;;;;3.97;2.90;;;11.40;99.90;;;;;;6132444;23;20399;-76
2023/08/31 02:29:26;;;;;;;2.57;2.37;;;11.30;99.90;;;;;;6132132;23;20136;-75
2023/08/31 02:31:51;;;;;;;2.90;2.13;;;11.30;99.90;;;;;;6132715;23;20136;-76
2023/08/31 02:34:17;;;;;;;2.37;2.07;;;11.30;99.90;;;;;;6131727;23;20179;-77
2023/08/31 02:36:42;;;;;;;5.23;3.67;;;11.30;99.90;;;;;;6108302;23;20136;-76
2023/08/31 02:39:09;;;;;;;3.47;3.17;;;11.30;99.90;;;;;;6107604;23;20134;-76
2023/08/31 02:41:36;;;;;;;3.77;3.23;;;11.40;99.90;;;;;;6083517;23;20398;-75
2023/08/31 02:44:04;;;;;;;5.60;2.80;;;11.40;99.90;;;;;;6133524;23;20416;-75
2023/08/31 02:46:29;;;;;;;3.77;2.60;;;11.50;99.90;;;;;;6133759;23;20375;-76
2023/08/31 02:48:56;;;;;;;3.17;2.50;;;11.50;99.90;;;;;;6111655;23;20152;-77
2023/08/31 02:51:21;;;;;;;3.20;2.70;;;11.40;99.90;;;;;;6140297;23;20485;-76
2023/08/31 02:53:48;;;;;;;4.27;2.77;;;11.40;99.90;;;;;;6065173;23;20411;-76
2023/08/31 02:56:14;;;;;;;3.40;2.43;;;11.30;99.90;;;;;;6105114;23;20140;-77
2023/08/31 02:58:40;;;;;;;5.23;3.10;;;11.30;99.90;;;;;;6106077;23;20414;-76
2023/08/31 03:01:16;;;;;;;3.37;2.60;;;11.40;99.90;;;;;;6131599;23;20240;-76
2023/08/31 03:03:46;;;;;;;7.20;2.60;;;11.30;99.90;;;;;;6106026;23;20179;-76
2023/08/31 03:06:12;;;;;;;4.30;3.20;;;11.30;99.90;;;;;;6105453;23;20368;-77
2023/08/31 03:08:38;;;;;;;3.07;2.37;;;11.30;99.90;;;;;;6105237;23;20356;-76
2023/08/31 03:11:04;;;;;;;4.47;2.50;;;11.20;99.90;;;;;;6105349;23;20178;-76
2023/08/31 03:13:31;;;;;;;4.03;2.60;;;11.20;99.90;;;;;;6131132;23;20762;-75
2023/08/31 03:15:59;;;;;;;3.33;2.30;;;11.10;99.90;;;;;;6130902;23;20365;-76
2023/08/31 03:18:24;;;;;;;4.20;2.33;;;11.20;99.90;;;;;;6106586;23;20379;-77
2023/08/31 03:20:50;;;;;;;6.43;2.90;;;11.20;99.90;;;;;;6133498;23;20403;-76
2023/08/31 03:23:17;;;;;;;4.60;3.07;;;11.20;99.90;;;;;;6132783;23;20168;-75
2023/08/31 03:25:42;;;;;;;3.67;3.03;;;11.20;99.90;;;;;;6135936;23;20781;-76
2023/08/31 03:28:09;;;;;;;4.10;3.30;;;11.20;99.90;;;;;;6107405;23;20762;-78
2023/08/31 03:30:35;;;;;;;5.13;3.33;;;11.20;99.90;;;;;;6107877;23;20256;-78
2023/08/31 03:33:00;;;;;;;4.37;3.30;;;11.20;99.90;;;;;;6106437;23;20455;-78
2023/08/31 03:35:27;;;;;;;4.10;2.87;;;11.40;99.90;;;;;;6132024;23;20204;-76
2023/08/31 03:37:54;;;;;;;3.40;2.77;;;11.50;99.90;;;;;;6107117;23;20154;-76
2023/08/31 03:40:20;;;;;;;4.60;3.90;;;11.70;99.90;;;;;;6139436;23;20391;-76
2023/08/31 03:42:45;;;;;;;4.77;3.10;;;11.80;99.90;;;;;;6094136;23;20423;-76
2023/08/31 03:45:11;;;;;;;3.60;2.70;;;12.00;99.90;;;;;;6112573;23;20144;-77
2023/08/31 03:47:37;;;;;;;3.13;2.57;;;12.10;99.90;;;;;;6107186;23;20150;-75
2023/08/31 03:50:04;;;;;;;7.70;4.63;;;12.20;99.90;;;;;;6105830;23;20455;-76
2023/08/31 03:52:29;;;;;;;6.07;3.67;;;12.40;99.90;;;;;;6115801;23;20141;-77
2023/08/31 03:54:55;;;;;;;6.30;3.70;;;12.40;99.90;;;;;;6128373;23;20387;-77
2023/08/31 03:57:22;;;;;;;4.70;3.70;;;12.50;99.90;;;;;;6119418;23;20148;-76
2023/08/31 03:59:50;;;;;;;5.10;3.83;;;12.50;99.90;;;;;;6121270;23;20398;-78
2023/08/31 04:02:16;;;;;;;3.93;3.43;;;12.60;99.90;;;;;;6109850;23;20404;-77
2023/08/31 04:04:42;;;;;;;4.30;3.50;;;12.60;99.90;;;;;;6083566;23;20164;-77
2023/08/31 04:07:07;;;;;;;3.17;2.87;;;12.70;99.90;;;;;;6107036;23;20144;-78
2023/08/31 04:09:33;;;;;;;3.30;2.97;;;12.70;99.90;;;;;;6106177;23;20132;-75
2023/08/31 04:11:59;;;;;;;7.40;3.00;;;12.70;99.90;;;;;;6132987;23;20557;-77
2023/08/31 04:14:27;;;;;;;3.70;2.40;;;12.70;99.90;;;;;;6108892;23;20136;-77
2023/08/31 04:16:55;;;;;;;3.70;2.90;;;12.70;99.90;;;;;;6134221;23;20194;-76
2023/08/31 04:19:20;;;;;;;3.83;2.73;;;12.60;99.90;;;;;;6133912;23;20379;-75
2023/08/31 04:21:46;;;;;;;2.77;2.47;;;12.40;99.90;;;;;;6109345;23;20367;-79
2023/08/31 04:24:11;;;;;;;4.43;3.20;;;12.40;99.90;;;;;;6134876;23;20165;-76
2023/08/31 04:26:37;;;;;;;6.17;3.40;;;12.40;99.90;;;;;;6118195;23;20256;-77
2023/08/31 04:29:05;;;;;;;6.47;3.53;;;12.30;99.90;;;;;;6087334;23;20521;-77
2023/08/31 04:31:31;;;;;;;2.60;2.30;;;12.30;99.90;;;;;;6111201;23;20173;-76
2023/08/31 04:33:57;;;;;;;3.73;2.67;;;12.30;99.90;;;;;;6107568;23;20375;-77
2023/08/31 04:36:22;;;;;;;2.27;1.70;;;12.20;99.90;;;;;;6136288;23;20641;-76
2023/08/31 04:38:51;;;;;;;2.93;2.43;;;12.10;99.90;;;;;;6109019;23;20155;-77
2023/08/31 04:41:17;;;;;;;3.10;2.37;;;12.00;99.90;;;;;;6132932;23;20193;-79
2023/08/31 04:43:42;;;;;;;3.63;2.57;;;12.00;99.90;;;;;;6133042;23;20407;-76
2023/08/31 04:46:08;;;;;;;3.37;2.90;;;12.00;99.90;;;;;;6107774;23;20164;-77
2023/08/31 04:48:33;;;;;;;3.33;2.60;;;12.00;99.90;;;;;;6133212;23;20163;-78
2023/08/31 04:50:59;;;;;;;3.40;2.40;;;12.00;99.90;;;;;;6133093;23;20195;-77
2023/08/31 04:53:25;;;;;;;3.47;2.70;;;11.90;99.90;;;;;;6132888;23;20146;-77
2023/08/31 04:55:50;;;;;;;2.47;2.27;;;11.90;99.90;;;;;;6134702;23;20140;-77
2023/08/31 04:58:16;;;;;;;2.80;2.40;;;11.80;99.90;;;;;;6109736;23;20506;-78
2023/08/31 05:00:44;;;;;;;8.37;3.93;;;11.70;99.90;;;;;;6137755;23;20167;-78
2023/08/31 05:03:10;;;;;;;3.87;3.20;;;11.70;99.90;;;;;;6125149;23;20184;-77
2023/08/31 05:05:36;;;;;;;5.27;3.20;;;11.60;99.90;;;;;;6076284;23;20430;-75
2023/08/31 05:08:03;;;;;;;2.93;2.60;;;11.70;99.90;;;;;;6125156;23;20375;-77
2023/08/31 05:10:29;;;;;;;3.53;2.90;;;11.60;99.90;;;;;;6125118;23;20191;-79
2023/08/31 05:12:54;;;;;;;5.60;2.90;;;11.60;99.90;;;;;;6101091;23;20393;-78
2023/08/31 05:15:22;;;;;;;6.33;3.20;;;11.60;99.90;;;;;;6150122;23;20429;-78
2023/08/31 05:17:48;;;;;;;5.20;3.37;;;11.60;99.90;;;;;;6076862;23;20376;-79
2023/08/31 05:20:14;;;;;;;4.37;3.53;;;11.60;99.90;;;;;;6079927;23;20495;-79
2023/08/31 05:22:42;;;;;;;3.33;2.60;;;11.70;99.90;;;;;;6128112;23;20419;-78
2023/08/31 05:25:08;;;;;;;3.50;2.50;;;11.70;99.90;;;;;;6127948;23;20185;-80
2023/08/31 05:27:34;;;;;;;2.47;2.27;;;11.70;99.90;;;;;;6102220;23;20381;-79
2023/08/31 05:30:01;;;;;;;4.43;2.87;;;11.70;99.90;;;;;;6130163;23;20382;-78
2023/08/31 05:32:29;;;;;;;2.83;2.30;;;11.80;99.90;;;;;;6080950;23;20395;-78
2023/08/31 05:34:55;;;;;;;2.80;2.57;;;11.80;99.90;;;;;;6127068;23;20371;-78
2023/08/31 05:37:21;;;;;;;9.07;3.60;;;11.80;99.90;;;;;;6126166;23;20385;-78
2023/08/31 05:39:51;;;;;;;6.63;3.47;;;11.90;99.90;;;;;;6127736;23;20444;-79
2023/08/31 05:42:24;;;;;;;4.27;2.90;;;11.90;99.90;;;;;;6102943;23;20248;-80
2023/08/31 05:44:50;;;;;;;3.17;2.87;;;12.00;99.90;;;;;;6079314;23;20380;-78
2023/08/31 05:47:16;;;;;;;3.60;3.07;;;12.00;99.90;;;;;;6102985;23;20372;-80
2023/08/31 05:49:42;;;;;;;4.27;2.73;;;12.10;99.90;;;;;;6079281;23;20192;-78
2023/08/31 05:52:08;;;;;;;3.40;2.40;;;12.20;99.90;;;;;;6103998;23;20392;-79
2023/08/31 05:54:34;;;;;;;2.93;2.10;;;12.20;99.90;;;;;;6126578;23;20166;-77
2023/08/31 05:57:03;;;;;;;3.33;2.33;;;12.30;99.90;;;;;;6127561;23;20415;-80
2023/08/31 05:59:29;;;;;;;3.13;2.43;;;12.30;99.90;;;;;;6078194;23;20144;-78
2023/08/31 06:01:55;;;;;;;3.13;2.00;;;12.40;99.90;;;;;;6104105;23;20372;-79
2023/08/31 06:04:21;;;;;;;2.33;1.90;;;12.40;99.90;;;;;;6105247;23;20205;-79
2023/08/31 06:06:47;;;;;;;3.97;2.80;;;12.50;99.90;;;;;;6094926;23;20137;-78
2023/08/31 06:09:16;;;;;;;2.50;2.10;;;12.60;99.90;;;;;;6070485;23;20177;-78
2023/08/31 06:11:41;;;;;;;3.90;2.40;;;12.70;99.90;;;;;;6044648;23;20396;-78
2023/08/31 06:14:07;;;;;;;3.80;2.60;;;12.70;99.90;;;;;;6067474;23;20352;-80
2023/08/31 06:16:33;;;;;;;2.23;2.00;;;12.80;99.90;;;;;;6067450;23;20204;-79
2023/08/31 06:18:59;;;;;;;2.30;2.03;;;12.90;99.90;;;;;;6066781;23;20397;-78
2023/08/31 06:21:25;;;;;;;4.57;2.67;;;13.00;99.90;;;;;;6043475;23;20506;-81
2023/08/31 06:23:51;;;;;;;6.40;3.00;;;13.10;99.90;;;;;;6044347;23;20182;-80
2023/08/31 06:26:16;;;;;;;4.87;2.70;;;13.20;99.90;;;;;;6044644;23;20138;-80
2023/08/31 06:28:43;;;;;;;5.60;3.67;;;13.20;99.90;;;;;;6043717;23;20156;-82
2023/08/31 06:31:09;;;;;;;4.43;2.70;;;13.30;99.90;;;;;;6007482;23;20194;-79
2023/08/31 06:33:37;;;;;;;2.80;2.27;;;13.40;99.90;;;;;;5959732;24;20450;-79
2023/08/31 06:36:03;;;;;;;5.10;2.93;;;13.40;99.90;;;;;;5960869;24;20150;-78
2023/08/31 06:38:30;;;;;;;4.03;2.93;;;13.50;99.90;;;;;;5961440;23;20379;-80
2023/08/31 06:40:58;;;;;;;3.40;2.50;;;13.50;99.90;;;;;;5961162;24;20424;-79
2023/08/31 06:43:28;;;;;;;7.37;2.33;;;13.50;99.90;;;;;;5997860;23;20444;-79
2023/08/31 06:45:57;;;;;;;7.40;3.10;;;13.60;99.90;;;;;;6018892;23;20374;-79
2023/08/31 06:48:23;;;;;;;3.93;3.10;;;13.70;99.90;;;;;;6018699;23;20402;-79
2023/08/31 06:50:49;;;;;;;5.23;1.90;;;13.70;99.90;;;;;;6065124;23;20434;-80
2023/08/31 06:53:16;;;;;;;7.27;3.13;;;13.70;99.90;;;;;;6017079;23;20453;-81
2023/08/31 06:55:44;;;;;;;6.30;2.90;;;13.80;99.90;;;;;;6040548;23;20362;-79
2023/08/31 06:58:14;;;;;;;4.90;3.00;;;13.90;99.90;;;;;;6039498;23;20488;-78
2023/08/31 07:00:40;;;;;;;6.10;2.87;;;13.90;99.90;;;;;;6017299;23;20508;-77
2023/08/31 07:03:07;;;;;;;6.80;2.90;;;13.90;99.90;;;;;;6063751;23;20450;-79
2023/08/31 07:05:37;;;;;;;4.37;2.10;;;14.00;99.90;;;;;;6039530;23;20381;-80
2023/08/31 07:08:15;;;;;;;10.47;3.20;;;14.10;99.90;;;;;;6050223;23;20396;-77
2023/08/31 07:10:44;;;;;;;5.30;2.20;;;14.20;99.90;;;;;;6068851;23;20408;-79
2023/08/31 07:13:10;;;;;;;5.17;3.00;;;14.40;99.90;;;;;;6049018;23;20383;-73
2023/08/31 07:15:35;;;;;;;6.03;2.70;;;14.60;99.90;;;;;;6138287;23;20750;-72
2023/08/31 07:18:01;;;;;;;3.73;2.27;;;14.80;99.90;;;;;;6136541;23;20191;-74
2023/08/31 07:20:26;;;;;;;4.20;1.97;;;14.90;99.90;;;;;;6136344;23;20159;-73
2023/08/31 07:22:52;;;;;;;7.70;3.27;;;15.00;99.90;;;;;;6087222;23;20184;-73
2023/08/31 07:25:18;;;;;;;3.20;2.17;;;15.00;99.90;;;;;;6112206;23;20450;-72
2023/08/31 07:27:43;;;;;;;3.43;2.47;;;15.00;99.90;;;;;;6134800;23;20144;-74
2023/08/31 07:30:10;;;;;;;4.43;2.17;;;15.10;99.90;;;;;;6136912;23;20179;-73
2023/08/31 07:32:35;;;;;;;7.77;3.00;;;15.10;99.90;;;;;;6137192;23;20147;-72
2023/08/31 07:35:03;;;;;;;4.60;2.37;;;15.10;99.90;;;;;;6135586;23;20466;-72
2023/08/31 07:37:28;;;;;;;6.20;2.97;;;15.20;99.90;;;;;;6140178;23;20140;-72
2023/08/31 07:39:54;;;;;;;3.50;2.23;;;15.30;99.90;;;;;;6148263;23;20378;-72
2023/08/31 07:42:19;;;;;;;2.53;2.33;;;15.30;99.90;;;;;;6147438;23;20171;-74
2023/08/31 07:44:45;;;;;;;5.17;2.50;;;15.50;99.90;;;;;;6119477;23;20160;-73
2023/08/31 07:47:10;;;;;;;6.50;2.30;;;15.60;99.90;;;;;;6145099;23;20164;-74
2023/08/31 07:49:36;;;;;;;3.27;2.40;;;15.70;99.90;;;;;;6135634;23;20201;-71
2023/08/31 07:52:03;;;;;;;6.13;2.63;;;15.80;99.90;;;;;;6137129;23;20159;-70
2023/08/31 07:54:28;;;;;;;5.27;2.00;;;15.90;99.90;;;;;;6111528;23;20175;-73
2023/08/31 07:56:54;;;;;;;2.47;1.90;;;16.00;99.90;;;;;;6110999;23;20322;-74
2023/08/31 07:59:20;;;;;;;5.57;2.13;;;16.00;99.90;;;;;;6139139;23;20474;-73
2023/08/31 08:01:46;;;;;;;3.93;2.30;;;16.00;99.90;;;;;;6111980;23;20207;-74
2023/08/31 08:04:12;;;;;;;4.17;2.60;;;16.10;99.90;;;;;;6114674;23;20194;-75
2023/08/31 08:06:37;;;;;;;2.83;2.03;;;16.30;99.90;;;;;;6140810;23;20353;-75
2023/08/31 08:09:04;;;;;;;3.97;2.60;;;16.60;99.90;;;;;;6144780;23;20136;-73
2023/08/31 08:11:30;;;;;;;6.53;2.60;;;16.70;99.90;;;;;;6116071;23;20230;-73
2023/08/31 08:13:56;;;;;;;5.23;2.27;;;16.70;99.90;;;;;;6112533;23;20456;-72
2023/08/31 08:16:22;;;;;;;3.43;1.67;;;16.70;99.90;;;;;;6111874;23;20385;-72
2023/08/31 08:18:48;;;;;;;6.23;2.30;;;16.70;99.90;;;;;;6115013;23;20132;-76
2023/08/31 08:21:13;;;;;;;2.93;2.13;;;16.70;99.90;;;;;;6115247;23;20204;-75
2023/08/31 08:23:39;;;;;;;4.27;1.90;;;16.70;99.90;;;;;;6111538;23;20165;-73
2023/08/31 08:26:05;;;;;;;3.40;1.97;;;16.80;99.90;;;;;;6088393;23;20163;-74
2023/08/31 08:28:30;;;;;;;4.20;2.30;;;17.00;99.90;;;;;;6092526;23;20144;-72
2023/08/31 08:30:56;;;;;;;4.10;1.90;;;17.10;99.90;;;;;;6113101;23;20171;-74
2023/08/31 08:33:21;;;;;;;5.40;2.10;;;17.30;99.90;;;;;;6115456;23;20144;-74
2023/08/31 08:35:47;;;;;;;2.57;2.10;;;17.30;99.90;;;;;;6136849;23;20136;-72
2023/08/31 08:38:13;;;;;;;2.53;1.53;;;17.30;99.90;;;;;;6109540;23;20201;-73
2023/08/31 08:40:38;;;;;;;4.60;2.00;;;17.30;99.90;;;;;;6136442;23;20170;-74
2023/08/31 08:43:07;;;;;;;4.73;2.50;;;17.40;99.90;;;;;;6138336;23;20165;-74
2023/08/31 08:45:38;;;;;;;5.57;2.77;;;17.30;99.90;;;;;;6112344;23;20192;-74
2023/08/31 08:48:08;;;;;;;3.87;2.37;;;17.30;99.90;;;;;;6090680;23;20394;-74
2023/08/31 08:50:35;;;;;;;6.57;2.00;;;17.40;99.90;;;;;;6092027;23;20449;-73
2023/08/31 08:53:02;;;;;;;7.00;2.27;;;17.40;99.90;;;;;;6140216;23;20379;-74
2023/08/31 08:55:28;;;;;;;4.60;2.30;;;17.50;99.30;;;;;;6116401;23;20378;-74
2023/08/31 08:57:53;;;;;;;4.33;2.40;;;17.60;98.90;;;;;;6115595;23;20777;-74
2023/08/31 09:00:19;;;;;;;6.23;2.77;;;17.80;98.10;;;;;;6144685;23;20175;-77
2023/08/31 09:03:08;;;;;;;5.40;2.90;;;17.90;96.20;;;;;;6152809;23;20164;-80
2023/08/31 09:33:23;;;;;;;4.50;1.93;;;18.30;84.40;;;;;;6154986;23;20468;-80
2023/08/31 09:36:50;;;;;;;5.80;2.37;;;18.30;82.20;;;;;;6151087;23;20392;-82
2023/08/31 10:46:08;;;;;;;4.67;2.23;;;20.40;58.40;;;;;;6152391;23;20515;-83
2023/08/31 11:16:45;;;;;;;4.40;2.00;;;21.70;56.90;;;;;;6143312;23;20521;-77
2023/08/31 11:19:10;;;;;;;6.03;2.57;;;22.00;57.30;;;;;;6092793;23;20430;-76
2023/08/31 11:21:37;;;;;;;7.57;3.07;;;22.30;55.50;;;;;;6119622;23;20415;-77
2023/08/31 11:24:03;;;;;;;4.20;2.47;;;22.60;53.80;;;;;;6094869;23;20175;-76
2023/08/31 11:26:31;;;;;;;10.63;3.00;;;22.50;54.00;;;;;;6095667;23;20371;-78
2023/08/31 11:28:57;;;;;;;3.30;2.03;;;22.20;54.10;;;;;;6095111;23;20176;-79
2023/08/31 11:31:26;;;;;;;7.77;2.90;;;22.00;54.30;;;;;;6095140;23;20416;-77
2023/08/31 11:33:54;;;;;;;6.03;2.40;;;21.60;54.50;;;;;;6121451;23;20163;-77
2023/08/31 11:36:20;;;;;;;5.10;2.30;;;21.50;55.30;;;;;;6145082;23;20379;-77
2023/08/31 11:38:48;;;;;;;5.40;2.93;;;21.60;56.00;;;;;;6094353;23;20408;-77
2023/08/31 11:41:14;;;;;;;6.33;2.40;;;21.60;56.80;;;;;;6142137;23;20229;-77
2023/08/31 11:43:41;;;;;;;3.93;1.93;;;21.50;57.90;;;;;;6115427;23;20411;-75
2023/08/31 11:46:07;;;;;;;3.57;1.97;;;21.40;58.40;;;;;;6115826;23;20163;-76
2023/08/31 11:48:34;;;;;;;3.40;2.13;;;21.30;59.20;;;;;;6116264;23;20375;-76
2023/08/31 11:51:00;;;;;;;5.37;3.07;;;21.10;59.70;;;;;;6093763;23;20892;-76
2023/08/31 11:53:27;;;;;;;6.17;2.77;;;21.10;59.90;;;;;;6094634;23;20376;-77
2023/08/31 11:55:53;;;;;;;6.33;2.83;;;20.90;60.00;;;;;;6119674;23;20371;-77
2023/08/31 11:58:24;;;;;;;4.30;2.17;;;20.80;59.90;;;;;;6142208;23;20363;-75
2023/08/31 12:01:21;;;;;;;5.10;2.40;;;20.70;59.80;;;;;;6092171;23;20411;-78
2023/08/31 12:15:06;;;;;;;5.50;2.80;;;20.70;57.80;;;;;;6137837;23;20459;-78
2023/08/31 12:17:36;;;;;;;5.10;2.00;;;21.00;57.70;;;;;;6073974;23;20385;-79
2023/08/31 12:20:05;;;;;;;3.63;2.20;;;21.20;57.50;;;;;;6111116;23;20408;-75
2023/08/31 12:22:31;;;;;;;5.97;2.30;;;21.40;57.30;;;;;;6112022;23;20553;-78
2023/08/31 12:24:57;;;;;;;6.30;2.17;;;21.60;56.90;;;;;;6086938;23;20373;-77
2023/08/31 12:27:23;;;;;;;6.67;2.63;;;21.60;56.80;;;;;;6087566;23;20187;-77
2023/08/31 12:29:50;;;;;;;5.63;3.60;;;21.60;57.40;;;;;;6063412;23;20244;-75
2023/08/31 12:32:17;;;;;;;7.00;3.80;;;21.70;57.60;;;;;;6062844;23;20155;-76
2023/08/31 12:34:42;;;;;;;3.83;2.60;;;21.60;58.50;;;;;;6087720;23;20368;-74
2023/08/31 12:37:08;;;;;;;5.70;2.70;;;21.60;59.30;;;;;;6087862;23;20360;-75
2023/08/31 12:39:34;;;;;;;6.13;2.87;;;21.30;59.80;;;;;;6062726;23;20201;-76
2023/08/31 12:42:00;;;;;;;3.77;2.90;;;21.00;61.40;;;;;;6090277;23;20149;-76
2023/08/31 12:44:26;;;;;;;4.50;2.33;;;20.90;60.70;;;;;;6066786;23;20436;-75
2023/08/31 12:46:52;;;;;;;6.27;2.60;;;20.70;60.20;;;;;;6092165;23;20141;-76
2023/08/31 12:49:20;;;;;;;5.20;2.27;;;20.60;60.10;;;;;;6091008;23;20129;-77
2023/08/31 12:51:46;;;;;;;5.50;2.17;;;20.60;59.50;;;;;;6115518;23;20422;-74
2023/08/31 12:54:12;;;;;;;6.87;2.57;;;20.60;58.60;;;;;;6113210;23;20373;-76
2023/08/31 12:56:37;;;;;;;10.90;3.40;;;20.60;57.80;;;;;;6112681;23;20439;-74
2023/08/31 12:59:05;;;;;;;9.10;2.37;;;20.50;57.60;;;;;;6114270;23;20352;-74
2023/08/31 13:01:33;;;;;;;3.00;2.00;;;20.40;57.80;;;;;;6066205;23;20180;-77
2023/08/31 13:03:59;;;;;;;4.40;2.20;;;20.50;57.80;;;;;;6088415;23;20412;-76
2023/08/31 13:06:26;;;;;;;4.67;2.20;;;20.70;57.40;;;;;;6117863;23;20388;-77
2023/08/31 13:08:52;;;;;;;4.63;2.00;;;20.90;56.90;;;;;;6090040;23;20373;-74
2023/08/31 13:11:23;;;;;;;2.97;2.30;;;21.10;55.70;;;;;;6089700;23;20851;-76
2023/08/31 13:13:51;;;;;;;5.00;2.50;;;21.30;55.80;;;;;;6114588;23;20377;-77
2023/08/31 13:16:17;;;;;;;4.30;2.30;;;21.40;55.60;;;;;;6094351;23;20411;-76
2023/08/31 13:18:43;;;;;;;4.53;2.00;;;21.40;55.60;;;;;;6118117;23;20374;-76
2023/08/31 13:21:09;;;;;;;7.23;2.27;;;21.30;56.10;;;;;;6144156;23;20461;-77
2023/08/31 13:23:34;;;;;;;7.20;2.80;;;21.30;56.40;;;;;;6142761;23;20171;-76
2023/08/31 13:26:00;;;;;;;5.17;2.40;;;21.30;57.10;;;;;;6143710;23;20140;-77
2023/08/31 13:28:25;;;;;;;5.00;1.87;;;21.40;57.30;;;;;;6120162;23;20151;-77
2023/08/31 13:31:00;;;;;;;4.50;2.30;;;21.50;57.50;;;;;;6096152;23;20167;-76
2023/08/31 13:33:28;;;;;;;7.50;2.77;;;21.40;57.70;;;;;;6117953;23;20144;-77
2023/08/31 13:39:16;;;;;;;5.87;2.47;;;21.30;58.00;;;;;;6136142;23;20483;-82
2023/08/31 13:41:42;;;;;;;4.23;2.37;;;21.40;58.00;;;;;;6100601;23;20424;-81
2023/08/31 14:21:40;;;;;;;5.73;3.13;;;20.60;59.70;;;;;;6120430;23;20935;-77
2023/08/31 14:24:06;;;;;;;7.77;2.67;;;20.60;59.30;;;;;;6116391;23;20481;-76
2023/08/31 14:26:32;;;;;;;5.93;2.23;;;20.50;59.30;;;;;;6070334;23;20425;-77
2023/08/31 14:28:58;;;;;;;3.53;2.33;;;20.60;59.20;;;;;;6128004;23;20372;-77
2023/08/31 14:31:23;;;;;;;8.80;2.87;;;20.70;59.50;;;;;;6102837;23;20443;-77
2023/08/31 14:33:50;;;;;;;5.10;2.80;;;20.70;58.90;;;;;;6147730;23;20161;-78
2023/08/31 14:36:16;;;;;;;4.30;2.87;;;20.80;58.90;;;;;;6103502;23;20152;-80
2023/08/31 14:38:58;;;;;;;5.03;2.43;;;20.90;58.20;;;;;;6126768;23;20367;-81
2023/08/31 14:41:26;;;;;;;5.63;3.13;;;21.10;57.50;;;;;;6105148;23;20423;-81
2023/08/31 14:44:05;;;;;;;4.10;2.30;;;21.20;57.30;;;;;;6107301;23;20454;-80
2023/08/31 14:46:31;;;;;;;4.40;2.80;;;21.10;56.30;;;;;;6105180;23;20384;-80
2023/08/31 14:48:57;;;;;;;4.17;2.37;;;21.20;56.60;;;;;;6127020;23;20698;-80
2023/08/31 14:51:29;;;;;;;4.10;2.53;;;21.30;56.20;;;;;;6125933;23;20679;-80
2023/08/31 14:53:57;;;;;;;3.10;2.43;;;21.30;56.00;;;;;;6101101;23;20386;-80
2023/08/31 14:56:25;;;;;;;3.57;2.40;;;21.40;56.50;;;;;;6126586;23;20356;-79
2023/08/31 14:58:51;;;;;;;4.00;2.73;;;21.40;56.00;;;;;;6100346;23;20372;-79
2023/08/31 15:01:19;;;;;;;5.53;2.37;;;21.40;55.90;;;;;;6124797;23;20448;-79
2023/08/31 15:03:44;;;;;;;3.20;2.20;;;21.60;56.30;;;;;;6122675;23;20423;-80
2023/08/31 15:06:11;;;;;;;4.80;3.10;;;21.70;56.00;;;;;;6124865;23;20360;-81
2023/08/31 15:08:39;;;;;;;5.80;2.73;;;21.80;54.30;;;;;;6126957;23;20399;-81
2023/08/31 15:11:08;;;;;;;4.23;2.40;;;21.80;53.70;;;;;;6102368;23;20392;-80
2023/08/31 15:13:36;;;;;;;4.07;1.80;;;21.60;52.70;;;;;;6125889;23;20415;-81
2023/08/31 15:16:05;;;;;;;3.37;2.50;;;21.60;53.00;;;;;;6149404;23;20388;-79
2023/08/31 15:18:33;;;;;;;4.33;2.03;;;21.60;53.20;;;;;;6101999;23;20375;-81
2023/08/31 15:21:03;;;;;;;3.60;2.00;;;21.50;53.30;;;;;;6069715;23;20428;-82
2023/08/31 15:27:05;;;;;;;4.00;2.37;;;21.40;53.70;;;;;;6149021;23;20465;-80
2023/08/31 15:29:33;;;;;;;4.43;2.50;;;21.30;54.20;;;;;;6124636;23;20820;-80
2023/08/31 15:32:00;;;;;;;4.40;2.10;;;21.40;54.50;;;;;;6123355;23;20426;-79
2023/08/31 15:34:26;;;;;;;3.90;2.90;;;21.30;54.60;;;;;;6077352;23;20356;-79
2023/08/31 15:36:52;;;;;;;3.30;2.20;;;21.30;54.90;;;;;;6099526;23;20422;-80
2023/08/31 15:39:18;;;;;;;4.37;3.00;;;21.20;55.30;;;;;;6099351;23;20360;-80
2023/08/31 15:41:46;;;;;;;6.20;3.07;;;21.20;55.30;;;;;;6100376;23;20168;-78
2023/08/31 15:44:15;;;;;;;6.53;3.50;;;21.10;55.50;;;;;;6101130;23;20410;-80